Annville, Pennsylvania
Current Conditions -  °F | °C
As of 5:19 AM on Tuesday 27 Jan 2015 (Local Time) from KMUI Reporting Station
Unknown Precip Unknown Precip  
Wind Chill: 11°   Ceiling: 5000
Heat Index: 25°   Visibility: 10mi
Dew Point: 18°   Wind: 20mph
Humidity: 74%   Direction: 330°NNW
Pressure: 29.72"   Gusts: 28mph
Location:  40.33°N, 76.51°W
Report Text: KMUI 271019Z AUTO 33017G24KT 10SM UP FEW042 BKN050 OVC060 M04/M08 A2972 RMK AO2
Loading
Personal Weather Stations






























Interactive Weather Map New forecast layout! Learn more

10-Day Weather Forecast

Advertisements
Track Severe Weather on mobile